createdAt,value
2018-02-19T00:46:14.746Z,65.30
2018-02-19T00:49:07.761Z,65.60
2018-02-19T00:51:45.519Z,65.20
2018-02-19T00:54:33.166Z,66.60
2018-02-19T01:00:01.253Z,65.50
2018-02-19T01:02:46.932Z,65.80
2018-02-19T01:05:40.328Z,65.60
2018-02-19T01:08:16.691Z,65.70
2018-02-19T01:10:53.839Z,66.00
2018-02-19T01:13:32.955Z,66.10
2018-02-19T01:16:18.629Z,66.60
2018-02-19T01:18:59.275Z,67.90
2018-02-19T01:24:51.147Z,67.70
2018-02-19T01:27:37.099Z,66.10
2018-02-19T01:30:16.830Z,69.00
2018-02-19T01:32:59.738Z,69.40
2018-02-19T01:35:48.558Z,65.40
2018-02-19T01:39:32.118Z,67.00
2018-02-19T01:42:10.221Z,67.00
2018-02-19T01:44:52.007Z,67.10
2018-02-19T01:47:37.435Z,66.80
2018-02-19T01:50:29.505Z,66.80
2018-02-19T01:53:15.546Z,67.20
2018-02-19T01:56:00.815Z,67.10
2018-02-19T01:58:38.344Z,66.80
2018-02-19T02:01:18.439Z,67.40
2018-02-19T02:03:57.212Z,69.10
2018-02-19T02:06:35.351Z,69.00
2018-02-19T02:09:13.484Z,68.30
2018-02-19T02:11:54.317Z,68.40
2018-02-19T02:14:27.963Z,67.60
2018-02-19T02:17:12.458Z,68.40
2018-02-19T02:19:55.977Z,67.20
2018-02-19T02:22:34.754Z,67.30
2018-02-19T02:25:14.576Z,68.00
2018-02-19T02:27:54.734Z,67.90
2018-02-19T02:30:37.894Z,68.00
2018-02-19T02:33:23.554Z,70.40
2018-02-19T02:36:21.507Z,68.10
2018-02-19T02:39:07.633Z,68.00
2018-02-19T02:41:46.746Z,68.30
2018-02-19T02:44:28.923Z,68.30
2018-02-19T02:47:05.368Z,68.30
2018-02-19T02:49:42.258Z,68.20
2018-02-19T02:52:25.433Z,67.90
2018-02-19T02:55:09.663Z,69.40
2018-02-19T02:57:44.965Z,70.00
2018-02-19T03:00:51.933Z,70.00
2018-02-19T03:03:31.869Z,68.40
2018-02-19T03:06:09.551Z,68.60
2018-02-19T03:08:50.485Z,68.80
2018-02-19T03:11:23.981Z,68.80
2018-02-19T03:14:02.329Z,69.70
2018-02-19T03:16:46.469Z,68.50
2018-02-19T03:19:23.919Z,68.90
2018-02-19T03:22:16.118Z,69.60
2018-02-19T03:24:52.105Z,69.30
2018-02-19T03:27:36.110Z,68.60
2018-02-19T03:30:28.406Z,68.50
2018-02-19T03:33:06.687Z,68.30
2018-02-19T03:35:52.988Z,68.30
2018-02-19T03:38:38.749Z,69.80
2018-02-19T03:41:24.310Z,69.00
2018-02-19T03:46:53.624Z,69.50
2018-02-19T03:49:27.478Z,70.80
2018-02-19T03:52:21.090Z,69.40
2018-02-19T03:57:42.084Z,69.60
2018-02-19T04:00:29.476Z,71.30
2018-02-19T04:03:12.908Z,69.20
2018-02-19T04:06:04.089Z,69.00
2018-02-19T04:08:45.908Z,68.90
2018-02-19T04:11:33.273Z,69.50
2018-02-19T04:14:16.299Z,69.80
2018-02-19T04:16:52.274Z,69.60
2018-02-19T04:19:33.452Z,69.00
2018-02-19T04:22:07.624Z,69.80
2018-02-19T04:24:53.711Z,70.00
2018-02-19T04:27:49.981Z,69.90
2018-02-19T04:30:44.335Z,70.20
2018-02-19T04:33:26.988Z,70.50
2018-02-19T04:36:12.824Z,70.00
2018-02-19T04:38:51.976Z,70.60
2018-02-19T04:41:27.514Z,70.70
2018-02-19T04:44:22.582Z,70.00
2018-02-19T04:47:01.965Z,70.00
2018-02-19T04:49:39.290Z,69.30
2018-02-19T04:52:14.144Z,69.80
2018-02-19T04:54:50.985Z,69.60
2018-02-19T04:57:30.615Z,70.10
2018-02-19T05:00:15.585Z,68.90
2018-02-19T05:02:50.686Z,69.90
2018-02-19T05:05:43.448Z,69.10
2018-02-19T05:08:28.287Z,69.30
2018-02-19T05:11:08.747Z,69.10
2018-02-19T05:14:02.400Z,70.00
2018-02-19T05:16:59.243Z,70.00
2018-02-19T05:19:37.878Z,68.60
2018-02-19T05:22:27.372Z,69.70
2018-02-19T05:25:12.624Z,69.30
2018-02-19T05:52:10.533Z,70.30
2018-02-19T05:54:54.194Z,71.00
2018-02-19T06:12:00.186Z,70.20
2018-02-19T06:20:59.484Z,70.20
2018-02-19T06:23:46.641Z,69.20
2018-02-19T06:41:58.581Z,69.20
2018-02-19T06:44:47.752Z,68.90
2018-02-19T06:47:30.626Z,68.70
2018-02-19T06:53:40.257Z,68.40
2018-02-19T06:56:30.753Z,68.40
2018-02-19T06:59:29.606Z,68.20
2018-02-19T07:02:10.933Z,68.30
2018-02-19T07:05:15.614Z,68.10
2018-02-19T07:07:52.332Z,68.00
2018-02-19T07:10:47.995Z,68.20
2018-02-19T07:13:30.736Z,67.90
2018-02-19T07:16:18.830Z,67.80
2018-02-19T07:19:00.375Z,67.20
2018-02-19T07:21:41.731Z,67.20
2018-02-19T07:24:36.514Z,67.20
2018-02-19T07:27:22.878Z,66.90
2018-02-19T07:32:12.277Z,66.50
2018-02-19T07:35:02.167Z,66.70
2018-02-19T07:40:36.701Z,66.60
2018-02-19T07:43:33.939Z,66.80
2018-02-19T07:46:20.940Z,66.80
2018-02-19T07:49:07.827Z,66.40
2018-02-19T07:51:47.864Z,66.40
2018-02-19T07:54:34.099Z,66.30
2018-02-19T08:01:07.964Z,65.90
2018-02-19T08:06:39.736Z,65.30
2018-02-19T08:09:26.022Z,64.70
2018-02-19T08:12:13.964Z,64.70
2018-02-19T08:15:18.893Z,64.90
2018-02-19T08:18:03.040Z,64.80
2018-02-19T08:20:49.052Z,64.90
2018-02-19T08:34:03.094Z,64.60
2018-02-19T08:38:50.573Z,64.00
2018-02-19T08:41:49.325Z,63.20
2018-02-19T08:44:28.486Z,63.40
2018-02-19T08:47:20.462Z,63.20
2018-02-19T08:50:04.416Z,63.00
2018-02-19T08:53:15.576Z,63.00
2018-02-19T08:56:00.838Z,62.50
2018-02-19T08:58:39.535Z,61.90
2018-02-19T09:01:18.732Z,61.90
2018-02-19T09:04:00.336Z,61.40
2018-02-19T09:09:36.699Z,60.30
2018-02-19T09:12:26.775Z,58.30
2018-02-19T09:15:40.665Z,58.30
2018-02-19T09:18:20.332Z,57.50
2018-02-19T09:21:09.393Z,57.10
2018-02-19T09:23:58.000Z,56.90
2018-02-19T09:26:51.608Z,57.60
2018-02-19T09:42:15.102Z,57.50
2018-02-19T09:45:07.583Z,58.00
2018-02-19T09:47:48.453Z,58.00
2018-02-19T09:50:35.740Z,57.70
2018-02-19T09:53:16.245Z,57.70
2018-02-19T10:24:25.636Z,56.80
2018-02-19T10:37:08.736Z,56.70
2018-02-19T10:39:53.376Z,56.70
2018-02-19T10:45:47.769Z,55.00
2018-02-19T10:48:33.893Z,55.00
2018-02-19T10:51:34.911Z,54.50
2018-02-19T10:54:14.951Z,54.50
2018-02-19T10:57:08.716Z,53.50
2018-02-19T10:59:52.593Z,52.90
2018-02-19T11:02:34.021Z,52.30
2018-02-19T11:05:20.887Z,52.30
2018-02-19T11:08:01.169Z,52.60
2018-02-19T11:10:48.632Z,52.00
2018-02-19T11:13:37.663Z,51.90
2018-02-19T11:16:30.330Z,52.70
2018-02-19T11:19:22.564Z,51.40
2018-02-19T11:22:10.210Z,52.40
2018-02-19T11:25:05.215Z,52.00
2018-02-19T11:27:48.969Z,52.20
2018-02-19T11:30:43.504Z,52.20
2018-02-19T11:40:40.239Z,51.50
2018-02-19T11:43:32.566Z,51.50
2018-02-19T11:46:14.953Z,51.40
2018-02-19T11:55:27.770Z,51.60
2018-02-19T12:10:59.351Z,51.20
2018-02-19T12:20:02.841Z,47.50
2018-02-19T12:32:13.009Z,47.90
2018-02-19T12:45:46.913Z,48.70
2018-02-19T12:57:22.448Z,48.70
2018-02-19T13:05:59.581Z,46.50
2018-02-19T13:09:00.219Z,48.30
2018-02-19T13:12:18.923Z,48.30
2018-02-19T13:15:26.882Z,48.00
2018-02-19T13:21:06.339Z,49.90
2018-02-19T15:05:33.337Z,48.80
